Weather History for KBGF - April, 2014

Change the Weather History Date:

Friday, April 25, 2014

  Actual Average (KTHA) Record (KTHA)
Temperature  
Mean Temperature 60 °F -  
Max Temperature 69 °F 71 °F 75 °F (2015)
Min Temperature 48 °F 46 °F 41 °F (2013)
Degree Days  
Heating Degree Days 5    
Growing Degree Days 10 (Base 50)    
Moisture  
Dew Point 54 °F    
Average Humidity 69    
Maximum Humidity 93    
Minimum Humidity 52    
Precipitation  
Precipitation 0.00 in - - ()
Sea Level Pressure  
Sea Level Pressure 29.90 in    
Wind  
Wind Speed 8 mph (West)    
Max Wind Speed 14 mph    
Max Gust Speed 22 mph    
Visibility 10 miles    
Events      
Averages and records for this station are not official NWS values.
T = Trace of Precipitation, MM = Missing Value Source: NWS Daily Summary

Daily Weather History Graph

Daily Weather History Graph

Search for Another Location

Airport or City:

Trip Planner

Search our weather history database for the weather conditions in past years. The results will help you decide how hot, cold, wet, or windy it might be!

Date:

Astronomy

Apr. 25, 2014 Rise Set
Actual Time 6:59 AM EDT 8:25 PM EDT
Civil Twilight 6:33 AM EDT 8:51 PM EDT
Nautical Twilight 6:01 AM EDT 9:23 PM EDT
Astronomical Twilight 5:27 AM EDT 9:57 PM EDT
Moon 4:38 AM EDT (4/25) 4:54 PM EDT (4/25)
Length of Visible Light 14h 18m
Length of Day
13h 25m
Waning Crescent, 15% of the Moon is Illuminated
Apr 25
Waning Crescent
Apr 29
New
May 6
First Quarter
May 14
Full
May 21
Last Quarter

Hourly Weather History & Observations

Time (EDT) Temp. Dew Point Humidity Pressure Visibility Wind Dir Wind Speed Gust Speed Precip Events Conditions
12:15 AM 69.8 °F 53.6 °F 56% 29.84 in 10.0 mi South 6.9 mph - N/A   Scattered Clouds
12:35 AM 69.8 °F 53.6 °F 56% 29.84 in 10.0 mi South 8.1 mph - N/A   Scattered Clouds
12:55 AM 69.8 °F 53.6 °F 56% 29.84 in 10.0 mi South 5.8 mph - N/A   Mostly Cloudy
1:55 AM 69.8 °F 57.2 °F 64% 29.79 in 10.0 mi South 10.4 mph - N/A   Partly Cloudy
2:15 AM 69.8 °F 57.2 °F 64% 29.78 in 10.0 mi South 13.8 mph 21.9 mph N/A   Scattered Clouds
2:35 AM 68.0 °F 57.2 °F 68% 29.79 in 10.0 mi SW 6.9 mph - N/A   Mostly Cloudy
2:55 AM 68.0 °F 57.2 °F 68% 29.80 in 10.0 mi WSW 8.1 mph - N/A   Overcast
3:15 AM 66.2 °F 59.0 °F 78% 29.80 in 10.0 mi Variable 6.9 mph - N/A   Overcast
3:35 AM 66.2 °F 59.0 °F 78% 29.78 in 10.0 mi South 3.5 mph - N/A   Overcast
3:55 AM 64.4 °F 59.0 °F 83% 29.78 in 10.0 mi SSW 4.6 mph - N/A   Overcast
4:15 AM 64.4 °F 60.8 °F 88% 29.77 in 5.0 mi SSW 6.9 mph - N/A   Overcast
4:35 AM 64.4 °F 59.0 °F 83% 29.77 in 10.0 mi SSW 8.1 mph - N/A   Mostly Cloudy
4:55 AM 64.4 °F 59.0 °F 83% 29.77 in 10.0 mi SSW 10.4 mph - N/A   Mostly Cloudy
5:15 AM 64.4 °F 59.0 °F 83% 29.77 in 10.0 mi SSW 8.1 mph - N/A   Mostly Cloudy
5:35 AM 66.2 °F 57.2 °F 73% 29.76 in 10.0 mi SSW 9.2 mph - N/A   Overcast
5:55 AM 66.2 °F 57.2 °F 73% 29.76 in 10.0 mi SSW 8.1 mph - N/A   Overcast
6:15 AM 66.2 °F 59.0 °F 78% 29.77 in 10.0 mi SSW 9.2 mph - N/A   Overcast
6:35 AM 66.2 °F 60.8 °F 83% 29.78 in 10.0 mi WSW 11.5 mph - N/A   Overcast
6:55 AM 66.2 °F 60.8 °F 83% 29.78 in 10.0 mi WSW 13.8 mph - N/A   Overcast
7:15 AM 64.4 °F 59.0 °F 83% 29.80 in 10.0 mi WSW 10.4 mph - N/A   Mostly Cloudy
7:35 AM 64.4 °F 59.0 °F 83% 29.81 in 10.0 mi WSW 9.2 mph - N/A   Mostly Cloudy
7:55 AM 64.4 °F 59.0 °F 83% 29.81 in 10.0 mi WSW 10.4 mph - N/A   Scattered Clouds
8:15 AM 64.4 °F 57.2 °F 77% 29.83 in 10.0 mi WSW 13.8 mph - N/A   Partly Cloudy
8:35 AM 64.4 °F 55.4 °F 73% 29.84 in 10.0 mi West 10.4 mph - N/A   Partly Cloudy
8:55 AM 64.4 °F 55.4 °F 73% 29.85 in 10.0 mi West 11.5 mph - N/A   Mostly Cloudy
9:15 AM 62.6 °F 55.4 °F 77% 29.85 in 10.0 mi WSW 10.4 mph - N/A   Overcast
9:35 AM 62.6 °F 55.4 °F 77% 29.87 in 10.0 mi West 10.4 mph - N/A   Mostly Cloudy
9:55 AM 62.6 °F 55.4 °F 77% 29.88 in 10.0 mi West 11.5 mph - N/A   Overcast
10:15 AM 64.4 °F 55.4 °F 73% 29.88 in 10.0 mi West 6.9 mph - N/A   Overcast
10:35 AM 64.4 °F 55.4 °F 73% 29.89 in 10.0 mi West 10.4 mph - N/A   Overcast
10:55 AM 64.4 °F 55.4 °F 73% 29.90 in 10.0 mi WNW 10.4 mph - N/A   Overcast
11:15 AM 64.4 °F 53.6 °F 68% 29.91 in 10.0 mi West 11.5 mph - N/A   Overcast
11:35 AM 64.4 °F 55.4 °F 73% 29.92 in 10.0 mi WNW 11.5 mph - N/A   Overcast
11:55 AM 64.4 °F 53.6 °F 68% 29.93 in 10.0 mi West 12.7 mph - N/A   Overcast
12:15 PM 64.4 °F 53.6 °F 68% 29.94 in 10.0 mi West 12.7 mph - N/A   Overcast
12:35 PM 64.4 °F 53.6 °F 68% 29.95 in 10.0 mi West 13.8 mph - N/A   Overcast
12:55 PM 66.2 °F 55.4 °F 68% 29.94 in 10.0 mi West 10.4 mph - N/A   Mostly Cloudy
1:15 PM 66.2 °F 55.4 °F 68% 29.95 in 10.0 mi WNW 13.8 mph - N/A   Mostly Cloudy
1:35 PM 66.2 °F 55.4 °F 68% 29.94 in 10.0 mi NW 12.7 mph - N/A   Scattered Clouds
1:55 PM 68.0 °F 53.6 °F 60% 29.95 in 10.0 mi WNW 10.4 mph - N/A   Partly Cloudy
2:15 PM 68.0 °F 53.6 °F 60% 29.95 in 10.0 mi West 9.2 mph - N/A   Mostly Cloudy
2:35 PM 69.8 °F 53.6 °F 56% 29.95 in 10.0 mi WNW 10.4 mph - N/A   Overcast
2:55 PM 69.8 °F 53.6 °F 56% 29.95 in 10.0 mi NW 9.2 mph - N/A   Mostly Cloudy
3:15 PM 69.8 °F 53.6 °F 56% 29.95 in 10.0 mi West 12.7 mph - N/A   Mostly Cloudy
3:35 PM 69.8 °F 53.6 °F 56% 29.95 in 10.0 mi Variable 6.9 mph - N/A   Mostly Cloudy
3:55 PM 69.8 °F 53.6 °F 56% 29.95 in 10.0 mi NW 8.1 mph - N/A   Mostly Cloudy
4:15 PM 69.8 °F 53.6 °F 56% 29.95 in 10.0 mi NNW 8.1 mph - N/A   Mostly Cloudy
4:35 PM 69.8 °F 53.6 °F 56% 29.95 in 10.0 mi WNW 10.4 mph - N/A   Mostly Cloudy
4:55 PM 69.8 °F 53.6 °F 56% 29.95 in 10.0 mi Variable 5.8 mph - N/A   Mostly Cloudy
5:15 PM 69.8 °F 53.6 °F 56% 29.95 in 10.0 mi North 6.9 mph - N/A   Mostly Cloudy
5:35 PM 69.8 °F 53.6 °F 56% 29.95 in 10.0 mi Variable 6.9 mph - N/A   Scattered Clouds
5:55 PM 69.8 °F 53.6 °F 56% 29.95 in 10.0 mi WNW 6.9 mph - N/A   Scattered Clouds
6:15 PM 69.8 °F 53.6 °F 56% 29.95 in 10.0 mi WNW 10.4 mph - N/A   Mostly Cloudy
6:35 PM 69.8 °F 53.6 °F 56% 29.95 in 10.0 mi North 9.2 mph - N/A   Mostly Cloudy
6:55 PM 69.8 °F 51.8 °F 53% 29.95 in 10.0 mi North 6.9 mph - N/A   Scattered Clouds
7:15 PM 69.8 °F 51.8 °F 53% 29.95 in 10.0 mi NNW 4.6 mph - N/A   Partly Cloudy
7:35 PM 68.0 °F 50.0 °F 52% 29.96 in 10.0 mi NW 5.8 mph - N/A   Mostly Cloudy
7:55 PM 66.2 °F 48.2 °F 52% 29.97 in 10.0 mi NNW 4.6 mph - N/A   Scattered Clouds
8:15 PM 64.4 °F 48.2 °F 56% 29.97 in 10.0 mi NW 4.6 mph - N/A   Clear
8:35 PM 64.4 °F 48.2 °F 56% 29.98 in 10.0 mi Calm Calm - N/A   Clear
8:55 PM 62.6 °F 48.2 °F 59% 29.98 in 10.0 mi Calm Calm - N/A   Clear
9:15 PM 59.0 °F 48.2 °F 67% 29.98 in 10.0 mi Calm Calm - N/A   Clear
9:35 PM 55.4 °F 48.2 °F 77% 29.99 in 10.0 mi Calm Calm - N/A   Clear
9:55 PM 53.6 °F 48.2 °F 82% 29.99 in 10.0 mi Calm Calm - N/A   Clear
10:15 PM 53.6 °F 48.2 °F 82% 30.01 in 10.0 mi East 3.5 mph - N/A   Clear
10:35 PM 53.6 °F 48.2 °F 82% 30.01 in 10.0 mi Calm Calm - N/A   Clear
10:55 PM 51.8 °F 48.2 °F 88% 30.02 in 10.0 mi Calm Calm - N/A   Clear
11:15 PM 51.8 °F 48.2 °F 88% 30.01 in 10.0 mi Calm Calm - N/A   Clear
11:35 PM 51.8 °F 48.2 °F 88% 30.02 in 10.0 mi Calm Calm - N/A   Clear
11:55 PM 48.2 °F 46.4 °F 93% 30.01 in 10.0 mi Calm Calm - N/A   Clear